Time;durP1;ratioP1;P1;durP2;ratioP2;P2;SDS_P1;SDS_P2;PMS_P1;PMS_P2;Temp;Humidity;BMP_temperature;BMP_pressure;BME280_temperature;BME280_humidity;BME280_pressure;Samples;Min_cycle;Max_cycle;Signal;HPM_P1;HPM_P2
2021/04/03 00:00:13;;;;;;;32.15;5.88;;;6.10;84.50;;;;;;5074847;28;20044;-69
2021/04/03 00:02:39;;;;;;;31.60;5.32;;;6.10;84.70;;;;;;5075006;28;20472;-69
2021/04/03 00:05:08;;;;;;;30.23;6.22;;;6.00;84.80;;;;;;5074114;28;20071;-69
2021/04/03 00:07:35;;;;;;;32.20;6.07;;;6.00;85.10;;;;;;5074374;28;20033;-69
2021/04/03 00:10:00;;;;;;;26.80;6.05;;;6.00;85.80;;;;;;5056566;28;20086;-69
2021/04/03 00:12:26;;;;;;;24.58;5.60;;;5.90;85.20;;;;;;5074300;28;20048;-69
2021/04/03 00:14:52;;;;;;;24.38;6.53;;;5.90;85.60;;;;;;5074072;28;20036;-69
2021/04/03 00:17:18;;;;;;;31.23;6.88;;;5.80;85.60;;;;;;5074378;28;20036;-69
2021/04/03 00:19:43;;;;;;;27.08;5.85;;;5.80;85.80;;;;;;5074359;28;20485;-69
2021/04/03 00:22:09;;;;;;;27.40;7.10;;;5.80;86.10;;;;;;5074017;28;20393;-69
2021/04/03 00:24:35;;;;;;;25.65;5.85;;;5.70;86.40;;;;;;5073864;28;20040;-69
2021/04/03 00:27:00;;;;;;;28.08;6.68;;;5.80;86.30;;;;;;5073831;28;20039;-69
2021/04/03 00:29:26;;;;;;;27.42;6.43;;;5.70;86.40;;;;;;5073960;28;20035;-69
2021/04/03 00:31:52;;;;;;;40.67;6.93;;;5.70;86.60;;;;;;5073970;28;20039;-68
2021/04/03 00:34:17;;;;;;;35.35;7.90;;;5.70;86.80;;;;;;5073835;28;20550;-69
2021/04/03 00:36:43;;;;;;;36.55;7.35;;;5.70;86.70;;;;;;5073547;28;20033;-68
2021/04/03 00:39:09;;;;;;;30.60;6.00;;;5.70;87.00;;;;;;5073694;28;20066;-68
2021/04/03 00:41:34;;;;;;;32.72;5.97;;;5.70;87.10;;;;;;5073660;28;20495;-69
2021/04/03 00:44:00;;;;;;;37.72;6.53;;;5.70;87.50;;;;;;5073673;28;20040;-69
2021/04/03 00:46:26;;;;;;;40.95;7.68;;;5.70;87.30;;;;;;5073707;28;20044;-69
2021/04/03 00:48:51;;;;;;;35.75;7.70;;;5.70;87.30;;;;;;5073514;28;20480;-69
2021/04/03 00:51:17;;;;;;;35.35;7.15;;;5.70;87.80;;;;;;5074011;28;20044;-69
2021/04/03 00:53:43;;;;;;;32.78;8.77;;;5.70;88.00;;;;;;5073625;28;20037;-69
2021/04/03 00:56:09;;;;;;;43.30;7.18;;;5.70;88.30;;;;;;5073165;28;20131;-68
2021/04/03 00:58:35;;;;;;;33.95;6.00;;;5.70;88.20;;;;;;5073986;28;20045;-68
2021/04/03 01:01:03;;;;;;;29.27;7.05;;;5.70;88.50;;;;;;5073886;28;20384;-69
2021/04/03 01:03:29;;;;;;;34.20;6.68;;;5.60;88.60;;;;;;5073560;28;20407;-68
2021/04/03 01:05:55;;;;;;;29.67;7.00;;;5.70;88.80;;;;;;5073066;28;20040;-69
2021/04/03 01:08:20;;;;;;;30.80;6.20;;;5.70;88.50;;;;;;5073544;28;20036;-69
2021/04/03 01:10:52;;;;;;;33.33;7.25;;;5.70;88.80;;;;;;5073720;28;20048;-68
2021/04/03 01:13:47;;;;;;;31.45;6.47;;;5.70;89.00;;;;;;5073228;28;20127;-69
2021/04/03 01:17:00;;;;;;;32.42;6.70;;;5.70;89.20;;;;;;5072206;28;20127;-69
2021/04/03 01:20:24;;;;;;;39.63;7.47;;;5.70;89.30;;;;;;4991970;28;20046;-68
2021/04/03 01:23:04;;;;;;;35.83;6.70;;;5.60;89.80;;;;;;4934066;29;20047;-68
2021/04/03 01:26:25;;;;;;;36.20;7.75;;;5.70;89.80;;;;;;5060551;28;20092;-69
2021/04/03 01:29:30;;;;;;;37.67;7.47;;;5.70;90.10;;;;;;5070795;28;20053;-69
2021/04/03 01:31:57;;;;;;;;;;;5.70;90.20;;;;;;5073494;28;20044;-69
2021/04/03 01:34:26;;;;;;;37.20;8.23;;;5.70;90.20;;;;;;5072680;28;19931;-69
2021/04/03 01:37:00;;;;;;;36.10;7.32;;;5.70;90.10;;;;;;5073653;28;20047;-68
2021/04/03 01:39:28;;;;;;;33.80;7.80;;;5.70;90.30;;;;;;5055289;28;20098;-68
2021/04/03 01:42:00;;;;;;;40.42;9.13;;;5.60;90.30;;;;;;5073105;28;20037;-69
2021/04/03 01:44:32;;;;;;;38.45;8.25;;;5.70;90.30;;;;;;5073050;28;20041;-69
2021/04/03 01:46:59;;;;;;;40.80;10.05;;;5.70;90.40;;;;;;5072900;28;20044;-68
2021/04/03 01:49:26;;;;;;;34.17;8.13;;;5.70;90.50;;;;;;5072982;28;20041;-69
2021/04/03 01:51:52;;;;;;;41.65;7.68;;;5.70;90.40;;;;;;5073088;28;20118;-69
2021/04/03 01:54:20;;;;;;;35.75;8.35;;;5.60;90.50;;;;;;5073059;28;20167;-68
2021/04/03 01:56:49;;;;;;;39.85;7.45;;;5.60;90.50;;;;;;5072526;28;20488;-69
2021/04/03 01:59:16;;;;;;;32.20;8.70;;;5.60;90.70;;;;;;5073132;28;20037;-69
2021/04/03 02:01:44;;;;;;;45.60;8.68;;;5.60;90.70;;;;;;5072885;28;20045;-68
2021/04/03 02:04:13;;;;;;;37.92;7.53;;;5.60;90.80;;;;;;5073372;28;20071;-69
2021/04/03 02:06:41;;;;;;;47.75;7.78;;;5.50;90.90;;;;;;5072633;28;20036;-69
2021/04/03 02:09:11;;;;;;;41.17;7.85;;;5.50;90.90;;;;;;5073369;28;20068;-69
2021/04/03 02:11:39;;;;;;;38.28;7.35;;;5.40;91.00;;;;;;5072639;28;20040;-68
2021/04/03 02:14:06;;;;;;;44.22;8.80;;;5.30;91.10;;;;;;5072814;28;20098;-68
2021/04/03 02:16:34;;;;;;;34.13;7.18;;;5.30;91.20;;;;;;5072271;28;20162;-68
2021/04/03 02:19:03;;;;;;;37.97;7.80;;;5.30;91.30;;;;;;5072631;28;20111;-68
2021/04/03 02:21:30;;;;;;;31.67;7.72;;;5.30;91.30;;;;;;5072646;28;20037;-68
2021/04/03 02:23:57;;;;;;;46.13;8.73;;;5.30;91.30;;;;;;5072575;28;20075;-68
2021/04/03 02:26:22;;;;;;;43.88;8.75;;;5.20;91.20;;;;;;5073182;28;20396;-69
2021/04/03 02:28:52;;;;;;;39.42;8.77;;;5.20;91.40;;;;;;5076844;28;20036;-69
2021/04/03 02:31:18;;;;;;;39.08;7.28;;;5.20;91.30;;;;;;5076433;28;20032;-69
2021/04/03 02:33:44;;;;;;;47.95;8.60;;;5.20;91.30;;;;;;5076047;28;20598;-68
2021/04/03 02:36:10;;;;;;;42.72;8.85;;;5.20;91.30;;;;;;5075888;28;20041;-69
2021/04/03 02:38:36;;;;;;;43.17;9.45;;;5.10;91.40;;;;;;5076125;28;20138;-68
2021/04/03 02:41:07;;;;;;;44.08;9.00;;;5.10;91.70;;;;;;5076518;28;20479;-68
2021/04/03 02:43:48;;;;;;;51.10;9.82;;;5.00;91.80;;;;;;5076028;28;20048;-69
2021/04/03 02:46:55;;;;;;;47.47;9.40;;;5.10;91.90;;;;;;5075938;28;20037;-69
2021/04/03 02:49:41;;;;;;;31.23;6.82;;;5.00;92.00;;;;;;5046823;28;20053;-68
2021/04/03 02:52:11;;;;;;;46.47;8.65;;;5.00;91.90;;;;;;5076091;28;20056;-69
2021/04/03 02:54:37;;;;;;;37.05;7.95;;;5.10;91.90;;;;;;5075726;28;20043;-69
2021/04/03 02:57:06;;;;;;;53.78;8.77;;;5.10;91.80;;;;;;5075664;28;20037;-69
2021/04/03 02:59:36;;;;;;;48.60;7.35;;;5.10;91.90;;;;;;5076003;28;20051;-68
2021/04/03 03:02:03;;;;;;;48.25;7.65;;;5.20;91.90;;;;;;5075680;28;20037;-69
2021/04/03 03:04:29;;;;;;;49.65;9.75;;;5.10;91.80;;;;;;5075467;28;20533;-69
2021/04/03 03:06:57;;;;;;;52.72;8.70;;;5.10;91.80;;;;;;5075524;28;20044;-69
2021/04/03 03:09:25;;;;;;;35.90;7.97;;;5.10;91.70;;;;;;5075743;28;20048;-69
2021/04/03 03:11:57;;;;;;;47.70;9.27;;;5.10;91.70;;;;;;5075684;28;20086;-68
2021/04/03 03:14:23;;;;;;;39.30;7.35;;;5.00;91.90;;;;;;5075294;28;20489;-70
2021/04/03 03:16:52;;;;;;;38.70;7.30;;;5.00;91.90;;;;;;5075391;28;20036;-68
2021/04/03 03:19:19;;;;;;;42.22;8.52;;;5.00;91.90;;;;;;5075335;28;20036;-68
2021/04/03 03:21:45;;;;;;;40.83;9.15;;;5.00;92.00;;;;;;5075516;28;20036;-68
2021/04/03 03:24:12;;;;;;;43.65;8.23;;;5.00;92.00;;;;;;5075154;28;20496;-68
2021/04/03 03:26:39;;;;;;;36.88;8.07;;;5.00;92.10;;;;;;5074987;28;20068;-69
2021/04/03 03:29:08;;;;;;;53.83;8.70;;;5.10;92.10;;;;;;5075223;28;20036;-68
2021/04/03 03:31:34;;;;;;;53.22;8.95;;;5.20;91.90;;;;;;5075047;28;20043;-68
2021/04/03 03:34:00;;;;;;;42.00;8.07;;;5.30;92.00;;;;;;5074948;28;20044;-69
2021/04/03 03:36:29;;;;;;;39.85;9.15;;;5.30;91.90;;;;;;5074681;28;20044;-69
2021/04/03 03:38:57;;;;;;;42.40;8.43;;;5.40;92.00;;;;;;5074215;28;20064;-69
2021/04/03 03:41:26;;;;;;;46.70;8.88;;;5.40;91.80;;;;;;5075478;28;20421;-68
2021/04/03 03:43:53;;;;;;;49.08;8.68;;;5.40;91.70;;;;;;5075656;28;20055;-68
2021/04/03 03:46:19;;;;;;;41.13;9.20;;;5.40;91.70;;;;;;5074465;28;20131;-69
2021/04/03 03:48:44;;;;;;;42.45;8.95;;;5.50;91.70;;;;;;5074727;28;20063;-68
2021/04/03 03:51:11;;;;;;;45.60;8.57;;;5.50;91.80;;;;;;5074970;28;20033;-69
2021/04/03 03:53:37;;;;;;;44.10;8.20;;;5.50;91.70;;;;;;5074601;28;20040;-68
2021/04/03 03:56:03;;;;;;;51.10;9.57;;;5.50;91.70;;;;;;5074624;28;20098;-68
2021/04/03 03:58:29;;;;;;;36.63;8.77;;;5.50;91.70;;;;;;5074830;28;20045;-69
2021/04/03 04:00:56;;;;;;;37.70;8.10;;;5.60;91.70;;;;;;5074418;28;20033;-69
2021/04/03 04:03:22;;;;;;;39.22;9.02;;;5.60;91.60;;;;;;5074381;28;20068;-69
2021/04/03 04:05:48;;;;;;;47.63;7.93;;;5.60;91.70;;;;;;5074304;28;20428;-69
2021/04/03 04:08:14;;;;;;;41.63;9.57;;;5.60;91.60;;;;;;5074653;28;20071;-68
2021/04/03 04:10:39;;;;;;;45.33;10.27;;;5.60;91.70;;;;;;5074364;28;20041;-69
2021/04/03 04:13:05;;;;;;;46.97;9.07;;;5.60;91.80;;;;;;5074133;28;20041;-69
2021/04/03 04:15:31;;;;;;;48.47;8.75;;;5.60;91.70;;;;;;5074033;28;20059;-69
2021/04/03 04:17:56;;;;;;;44.60;9.27;;;5.60;91.60;;;;;;5074246;28;20040;-68
2021/04/03 04:20:22;;;;;;;40.05;9.30;;;5.60;91.60;;;;;;5074011;28;20112;-69
2021/04/03 04:22:48;;;;;;;44.80;9.60;;;5.70;91.60;;;;;;5074192;28;20476;-69
2021/04/03 04:25:14;;;;;;;38.20;8.82;;;5.60;91.60;;;;;;5074034;28;20041;-69
2021/04/03 04:27:39;;;;;;;43.22;8.45;;;5.70;91.70;;;;;;5056074;28;20548;-69
2021/04/03 04:30:10;;;;;;;38.90;8.02;;;5.70;91.60;;;;;;5074176;28;20124;-69
2021/04/03 04:32:40;;;;;;;42.85;7.93;;;5.70;91.60;;;;;;5074051;28;20049;-69
2021/04/03 04:35:08;;;;;;;42.53;9.10;;;5.70;91.60;;;;;;5073675;28;20037;-69
2021/04/03 04:37:34;;;;;;;43.28;8.32;;;5.70;91.60;;;;;;5073983;28;20037;-69
2021/04/03 04:39:59;;;;;;;40.55;8.40;;;5.70;91.60;;;;;;5073662;28;20111;-67
2021/04/03 04:42:25;;;;;;;39.97;8.95;;;5.70;91.60;;;;;;5073677;28;20210;-68
2021/04/03 04:44:51;;;;;;;36.00;8.10;;;5.70;91.60;;;;;;5055781;28;20520;-68
2021/04/03 04:47:17;;;;;;;47.67;7.90;;;5.70;91.70;;;;;;5073694;28;20040;-68
2021/04/03 04:49:43;;;;;;;45.85;8.23;;;5.70;91.70;;;;;;5055384;28;20040;-68
2021/04/03 04:52:09;;;;;;;42.65;9.23;;;5.70;91.70;;;;;;5055395;28;20499;-67
2021/04/03 04:54:35;;;;;;;51.53;11.05;;;5.60;91.90;;;;;;5073221;28;20040;-68
2021/04/03 04:57:00;;;;;;;47.08;9.30;;;5.70;91.90;;;;;;5073515;28;20056;-68
2021/04/03 04:59:26;;;;;;;41.97;9.73;;;5.70;92.00;;;;;;5073393;28;20094;-68
2021/04/03 05:01:52;;;;;;;46.95;11.43;;;5.70;92.00;;;;;;5073593;28;20048;-68
2021/04/03 05:04:18;;;;;;;45.53;9.43;;;5.70;92.00;;;;;;5073600;28;20048;-68
2021/04/03 05:06:44;;;;;;;50.85;8.43;;;5.70;91.80;;;;;;5073520;28;20496;-68
2021/04/03 05:09:10;;;;;;;43.50;8.95;;;5.80;91.90;;;;;;5073331;28;20051;-68
2021/04/03 05:11:37;;;;;;;47.00;8.38;;;5.80;91.90;;;;;;5073260;28;20074;-68
2021/04/03 05:14:03;;;;;;;47.95;9.35;;;5.80;91.90;;;;;;5073219;28;20381;-68
2021/04/03 05:16:29;;;;;;;40.25;8.88;;;5.70;91.90;;;;;;5072729;28;20063;-68
2021/04/03 05:18:54;;;;;;;41.75;8.40;;;5.80;91.90;;;;;;5073546;28;20048;-68
2021/04/03 05:21:20;;;;;;;48.60;9.35;;;5.80;92.10;;;;;;5073607;28;20461;-68
2021/04/03 05:23:46;;;;;;;47.25;9.77;;;5.90;91.90;;;;;;5055498;28;20048;-68
2021/04/03 05:26:11;;;;;;;53.72;9.80;;;5.90;92.00;;;;;;5072640;28;20484;-68
2021/04/03 05:28:37;;;;;;;50.05;9.52;;;5.80;91.90;;;;;;5073018;28;20532;-68
2021/04/03 05:31:03;;;;;;;45.33;10.05;;;5.80;91.90;;;;;;5073474;28;20074;-68
2021/04/03 05:33:31;;;;;;;54.25;8.80;;;5.80;92.00;;;;;;5073118;28;20377;-70
2021/04/03 05:35:56;;;;;;;57.78;9.63;;;5.90;92.10;;;;;;5072845;28;20144;-71
2021/04/03 05:38:22;;;;;;;43.72;8.38;;;5.90;92.30;;;;;;5073481;28;20064;-71
2021/04/03 05:40:48;;;;;;;50.08;9.90;;;5.90;92.00;;;;;;5073055;28;20041;-70
2021/04/03 05:43:15;;;;;;;65.78;9.93;;;5.90;92.30;;;;;;5073241;28;20049;-71
2021/04/03 05:45:42;;;;;;;50.72;8.98;;;6.00;91.90;;;;;;5072805;28;20037;-71
2021/04/03 05:48:09;;;;;;;48.63;9.98;;;6.00;91.80;;;;;;5072926;28;20043;-70
2021/04/03 05:50:38;;;;;;;44.25;9.15;;;6.00;91.80;;;;;;5072865;28;20033;-71
2021/04/03 05:53:04;;;;;;;47.10;9.63;;;6.10;92.00;;;;;;5072817;28;20040;-70
2021/04/03 05:55:30;;;;;;;43.78;7.95;;;6.00;91.90;;;;;;5072831;28;20118;-70
2021/04/03 05:57:55;;;;;;;54.35;9.65;;;6.10;91.80;;;;;;5072897;28;20040;-71
2021/04/03 06:00:22;;;;;;;53.30;9.88;;;6.10;91.80;;;;;;5072913;28;20037;-70
2021/04/03 06:02:50;;;;;;;56.70;10.18;;;6.10;91.80;;;;;;5075821;28;20044;-71
2021/04/03 06:05:16;;;;;;;39.10;9.25;;;6.10;91.90;;;;;;5076389;28;20048;-71
2021/04/03 06:07:42;;;;;;;43.55;9.13;;;6.10;92.00;;;;;;5076623;28;20032;-70
2021/04/03 06:10:10;;;;;;;52.60;10.77;;;6.20;91.80;;;;;;5076626;28;20064;-71
2021/04/03 06:12:44;;;;;;;53.42;9.80;;;6.20;91.60;;;;;;5076740;28;20041;-71
2021/04/03 06:15:30;;;;;;;42.50;8.95;;;6.20;91.60;;;;;;5076485;28;20105;-71
2021/04/03 06:18:00;;;;;;;56.42;10.60;;;6.30;91.70;;;;;;5063089;28;20591;-71
2021/04/03 06:20:34;;;;;;;56.88;10.63;;;6.20;91.70;;;;;;5076973;28;20044;-71
2021/04/03 06:23:01;;;;;;;47.53;9.15;;;6.20;91.70;;;;;;5058938;28;20051;-71
2021/04/03 06:25:28;;;;;;;36.67;9.57;;;6.20;91.60;;;;;;5076051;28;20033;-71
2021/04/03 06:28:10;;;;;;;47.65;10.95;;;6.30;91.70;;;;;;5076447;28;20044;-71
2021/04/03 06:30:37;;;;;;;46.00;9.55;;;6.30;91.70;;;;;;5058369;28;20059;-71
2021/04/03 06:33:17;;;;;;;39.35;9.70;;;6.30;91.60;;;;;;5076163;28;20068;-71
2021/04/03 06:35:44;;;;;;;43.22;8.75;;;6.30;91.60;;;;;;5076006;28;20041;-71
2021/04/03 06:38:20;;;;;;;45.22;10.95;;;6.40;91.60;;;;;;5076340;28;20071;-70
2021/04/03 06:40:46;;;;;;;47.63;9.50;;;6.40;91.60;;;;;;5076214;28;20068;-71
2021/04/03 06:43:19;;;;;;;52.13;9.88;;;6.50;91.50;;;;;;5076130;28;20072;-71
2021/04/03 06:45:46;;;;;;;58.13;9.57;;;6.40;91.40;;;;;;5075761;28;20527;-71
2021/04/03 06:48:14;;;;;;;38.33;7.55;;;6.40;91.40;;;;;;5075934;28;20725;-70
2021/04/03 06:50:48;;;;;;;44.53;8.73;;;6.50;91.40;;;;;;5075987;28;20119;-70
2021/04/03 06:53:16;;;;;;;43.03;10.48;;;6.50;91.40;;;;;;5075956;28;20044;-71
2021/04/03 06:55:46;;;;;;;46.55;10.00;;;6.60;91.40;;;;;;5075334;28;20055;-71
2021/04/03 06:58:12;;;;;;;43.83;9.75;;;6.50;91.30;;;;;;5075785;28;20044;-71
2021/04/03 07:00:39;;;;;;;46.33;9.70;;;6.60;91.20;;;;;;5076303;28;20043;-70
2021/04/03 07:03:23;;;;;;;46.53;10.02;;;6.70;91.20;;;;;;5075634;28;20392;-71
2021/04/03 07:05:50;;;;;;;49.88;9.70;;;6.80;91.10;;;;;;5075313;28;20036;-71
2021/04/03 07:08:16;;;;;;;37.42;10.18;;;6.90;90.70;;;;;;5075540;28;20454;-71
2021/04/03 07:10:43;;;;;;;37.83;9.20;;;6.90;90.70;;;;;;5075698;28;20071;-71
2021/04/03 07:13:12;;;;;;;44.88;8.25;;;7.10;90.60;;;;;;5074297;28;20045;-71
2021/04/03 07:15:38;;;;;;;44.10;10.57;;;7.00;90.50;;;;;;5074994;28;20040;-71
2021/04/03 07:18:08;;;;;;;41.63;9.35;;;7.10;90.10;;;;;;5075349;28;20499;-71
2021/04/03 07:20:35;;;;;;;32.00;8.88;;;7.10;90.20;;;;;;5075204;28;20149;-71
2021/04/03 07:23:06;;;;;;;42.85;9.68;;;7.30;90.20;;;;;;5075138;28;20084;-71
2021/04/03 07:25:34;;;;;;;34.72;8.88;;;7.20;90.10;;;;;;5074848;28;20158;-71
2021/04/03 07:28:00;;;;;;;44.85;9.63;;;7.30;89.80;;;;;;5075838;28;20039;-71
2021/04/03 07:30:32;;;;;;;49.13;9.85;;;7.30;89.80;;;;;;5075333;28;20036;-71
2021/04/03 07:33:14;;;;;;;25.80;7.75;;;7.50;89.40;;;;;;5074945;28;20036;-71
2021/04/03 07:35:50;;;;;;;39.05;8.90;;;7.70;89.10;;;;;;5074726;28;20071;-71
2021/04/03 07:38:19;;;;;;;38.53;8.80;;;8.00;88.10;;;;;;5075048;28;20093;-71
2021/04/03 07:40:47;;;;;;;44.83;10.32;;;8.20;87.50;;;;;;5075073;28;20484;-71
2021/04/03 07:43:38;;;;;;;41.55;7.57;;;8.70;85.40;;;;;;5075151;28;20068;-71
2021/04/03 07:46:06;;;;;;;36.25;7.95;;;8.50;84.20;;;;;;5074765;28;20102;-71
2021/04/03 07:48:38;;;;;;;36.83;8.55;;;8.30;85.30;;;;;;5074894;28;20435;-71
2021/04/03 07:51:15;;;;;;;39.38;10.80;;;8.40;84.90;;;;;;5057280;28;20469;-71
2021/04/03 07:53:43;;;;;;;54.45;8.38;;;8.50;84.50;;;;;;5074497;28;20481;-71
2021/04/03 07:56:11;;;;;;;42.05;8.43;;;8.30;85.00;;;;;;5074368;28;20062;-71
2021/04/03 07:58:48;;;;;;;33.80;7.28;;;8.40;84.40;;;;;;5074555;28;20033;-70
2021/04/03 08:01:15;;;;;;;37.00;8.13;;;8.30;84.50;;;;;;5074793;28;20123;-69
2021/04/03 08:03:52;;;;;;;33.30;7.20;;;8.20;84.70;;;;;;5073824;28;20053;-71
2021/04/03 08:06:18;;;;;;;39.35;8.23;;;8.50;84.50;;;;;;5074247;28;20047;-71
2021/04/03 08:08:44;;;;;;;32.55;6.78;;;8.60;83.70;;;;;;5074239;28;20032;-71
2021/04/03 08:11:16;;;;;;;28.05;6.63;;;8.60;83.40;;;;;;5074726;28;20395;-71
2021/04/03 08:13:44;;;;;;;35.22;8.27;;;9.10;82.40;;;;;;5074715;28;20072;-71
2021/04/03 08:16:11;;;;;;;38.42;8.75;;;9.50;81.20;;;;;;5073859;28;20036;-71
2021/04/03 08:18:43;;;;;;;32.28;7.72;;;9.70;79.40;;;;;;5074243;28;20040;-71
2021/04/03 08:21:10;;;;;;;32.92;8.80;;;9.70;78.90;;;;;;5074290;28;20396;-71
2021/04/03 08:23:49;;;;;;;33.17;7.60;;;9.50;78.70;;;;;;5074257;28;20051;-70
2021/04/03 08:26:16;;;;;;;36.47;8.77;;;9.30;79.40;;;;;;5072525;28;20463;-70
2021/04/03 08:28:43;;;;;;;32.75;8.65;;;9.70;79.90;;;;;;5072970;28;20033;-72
2021/04/03 08:31:25;;;;;;;32.25;8.35;;;10.00;79.10;;;;;;5072912;28;20075;-72
2021/04/03 08:33:53;;;;;;;33.08;7.32;;;10.30;77.50;;;;;;5074513;28;20112;-71
2021/04/03 08:36:24;;;;;;;25.50;6.53;;;10.40;74.60;;;;;;5073749;28;20040;-71
2021/04/03 08:38:51;;;;;;;30.55;6.95;;;10.30;74.60;;;;;;5072730;28;20039;-72
2021/04/03 08:41:25;;;;;;;33.38;7.28;;;10.10;74.10;;;;;;5056436;28;20037;-71
2021/04/03 08:43:52;;;;;;;30.38;6.88;;;9.70;74.60;;;;;;5072877;28;20120;-70
2021/04/03 08:46:19;;;;;;;45.10;8.27;;;9.70;76.00;;;;;;5073336;28;20063;-71
2021/04/03 08:48:47;;;;;;;32.50;7.13;;;9.90;76.80;;;;;;5074056;28;20064;-71
2021/04/03 08:51:14;;;;;;;33.33;7.85;;;10.00;75.60;;;;;;5072490;28;20062;-71
2021/04/03 08:53:51;;;;;;;27.48;6.93;;;10.40;75.10;;;;;;5073519;28;20043;-71
2021/04/03 08:56:28;;;;;;;25.65;6.75;;;10.80;73.40;;;;;;5073307;28;20163;-71
2021/04/03 08:58:56;;;;;;;29.40;6.97;;;10.70;71.70;;;;;;5072463;28;20037;-71
2021/04/03 09:01:23;;;;;;;30.38;6.40;;;10.40;72.50;;;;;;5073614;28;20046;-71
2021/04/03 09:03:53;;;;;;;32.03;7.63;;;10.10;74.30;;;;;;5073423;28;20051;-71
2021/04/03 09:06:51;;;;;;;30.02;6.70;;;9.70;74.80;;;;;;5073537;28;20036;-72
2021/04/03 09:09:21;;;;;;;28.95;5.55;;;9.60;75.20;;;;;;5073239;28;20040;-71
2021/04/03 09:12:01;;;;;;;32.78;7.30;;;9.70;75.90;;;;;;5073356;28;20037;-71
2021/04/03 09:14:28;;;;;;;30.77;5.32;;;10.00;75.80;;;;;;5072921;28;20078;-71
2021/04/03 09:16:55;;;;;;;28.15;6.40;;;9.90;73.90;;;;;;5073249;28;20049;-71
2021/04/03 09:19:32;;;;;;;30.45;6.07;;;10.00;74.10;;;;;;5073129;28;20047;-71
2021/04/03 09:21:59;;;;;;;22.70;6.63;;;10.40;72.80;;;;;;5073337;28;20047;-70
2021/04/03 09:24:55;;;;;;;31.83;7.28;;;10.50;72.50;;;;;;5055139;28;20048;-71
2021/04/03 09:27:21;;;;;;;34.90;8.88;;;10.10;72.60;;;;;;5055503;28;20044;-71
2021/04/03 09:30:08;;;;;;;29.90;6.80;;;10.00;73.70;;;;;;5072948;28;20064;-70
2021/04/03 09:32:44;;;;;;;23.80;5.18;;;10.00;73.80;;;;;;5055266;28;20036;-72
2021/04/03 09:35:13;;;;;;;26.58;5.57;;;10.10;73.90;;;;;;5072833;28;20045;-69
2021/04/03 09:37:38;;;;;;;28.80;5.85;;;10.30;72.60;;;;;;5079047;28;20036;-69
2021/04/03 09:40:07;;;;;;;26.20;5.97;;;10.30;72.60;;;;;;5079593;28;20037;-70
2021/04/03 09:42:33;;;;;;;26.83;6.20;;;10.10;72.30;;;;;;5061791;28;20119;-70
2021/04/03 09:45:03;;;;;;;22.50;5.90;;;10.30;72.40;;;;;;5079229;28;20407;-70
2021/04/03 09:47:29;;;;;;;20.30;5.25;;;10.60;69.70;;;;;;5079854;28;20155;-69
2021/04/03 09:49:55;;;;;;;27.85;5.95;;;10.40;69.00;;;;;;5079633;28;20036;-70
2021/04/03 09:52:21;;;;;;;27.50;5.75;;;10.40;69.60;;;;;;5079453;28;20047;-69
2021/04/03 09:54:48;;;;;;;31.17;6.00;;;10.30;71.40;;;;;;5079161;28;20040;-70
2021/04/03 09:57:15;;;;;;;30.33;5.45;;;10.30;71.90;;;;;;5079752;28;20094;-70
2021/04/03 09:59:41;;;;;;;25.77;5.72;;;10.30;72.40;;;;;;5079498;28;20036;-70
2021/04/03 10:02:07;;;;;;;29.13;5.78;;;10.30;72.00;;;;;;5061906;28;20385;-70
2021/04/03 10:04:33;;;;;;;29.23;5.55;;;10.20;72.60;;;;;;5079062;28;20111;-70
2021/04/03 10:07:00;;;;;;;31.35;6.82;;;10.30;73.20;;;;;;5079372;28;20067;-70
2021/04/03 10:09:26;;;;;;;27.65;5.47;;;10.30;72.30;;;;;;5079385;28;20618;-70
2021/04/03 10:11:55;;;;;;;27.77;6.15;;;10.00;71.60;;;;;;5079521;28;20448;-70
2021/04/03 10:14:25;;;;;;;25.48;5.70;;;9.70;72.00;;;;;;5079303;28;20040;-70
2021/04/03 10:16:50;;;;;;;23.02;6.65;;;9.70;72.50;;;;;;5079307;28;20111;-70
2021/04/03 10:19:17;;;;;;;25.10;5.72;;;9.90;72.10;;;;;;5079398;28;20071;-70
2021/04/03 10:21:42;;;;;;;24.88;5.90;;;10.00;71.20;;;;;;5079919;28;20044;-70
2021/04/03 10:24:09;;;;;;;31.80;5.88;;;10.10;71.00;;;;;;5079271;28;20040;-70
2021/04/03 10:26:35;;;;;;;31.75;6.97;;;10.00;71.00;;;;;;5078920;28;20037;-70
2021/04/03 10:29:00;;;;;;;22.05;5.38;;;10.10;72.00;;;;;;5061781;28;20066;-70
2021/04/03 10:31:26;;;;;;;19.92;4.85;;;10.00;72.30;;;;;;5079568;28;20040;-70
2021/04/03 10:33:52;;;;;;;29.50;6.60;;;10.10;71.30;;;;;;5061432;28;20067;-70
2021/04/03 10:36:18;;;;;;;26.35;5.45;;;10.10;71.90;;;;;;5079300;28;20056;-70
2021/04/03 10:38:45;;;;;;;27.23;5.95;;;10.30;71.30;;;;;;5079691;28;20044;-70
2021/04/03 10:41:11;;;;;;;35.63;8.77;;;10.00;70.60;;;;;;5079077;28;20039;-69
2021/04/03 10:43:37;;;;;;;19.23;4.15;;;10.10;71.00;;;;;;5079296;28;20045;-70
2021/04/03 10:46:02;;;;;;;24.67;5.40;;;10.20;69.90;;;;;;5079133;28;20043;-70
2021/04/03 10:48:28;;;;;;;28.30;6.35;;;10.00;70.10;;;;;;5076774;28;20110;-69
2021/04/03 10:50:54;;;;;;;19.63;5.03;;;10.20;72.40;;;;;;5076446;28;20436;-69
2021/04/03 10:53:19;;;;;;;20.35;4.50;;;10.30;71.00;;;;;;5076003;28;20503;-69
2021/04/03 10:55:45;;;;;;;18.15;4.63;;;10.30;69.70;;;;;;5075654;28;20041;-69
2021/04/03 10:58:11;;;;;;;17.38;5.18;;;10.30;69.00;;;;;;5075824;28;20123;-69
2021/04/03 11:00:38;;;;;;;17.35;5.68;;;10.00;69.60;;;;;;5075851;28;20041;-69
2021/04/03 11:03:04;;;;;;;19.30;5.13;;;10.30;69.80;;;;;;5075596;28;20076;-69
2021/04/03 11:05:29;;;;;;;16.80;4.90;;;10.30;69.60;;;;;;5075528;28;20043;-69
2021/04/03 11:07:56;;;;;;;20.45;5.03;;;10.30;68.80;;;;;;5076008;28;20524;-69
2021/04/03 11:10:21;;;;;;;20.88;4.75;;;10.10;68.30;;;;;;5075782;28;20048;-69
2021/04/03 11:12:47;;;;;;;24.08;4.85;;;10.30;68.80;;;;;;5075667;28;20040;-69
2021/04/03 11:15:13;;;;;;;24.25;4.25;;;10.40;69.20;;;;;;5074952;28;20075;-69
2021/04/03 11:17:39;;;;;;;19.77;4.80;;;10.50;68.50;;;;;;5075545;28;20041;-69
2021/04/03 11:20:09;;;;;;;25.10;4.70;;;10.70;68.70;;;;;;5075665;28;20043;-69
2021/04/03 11:22:36;;;;;;;24.40;5.78;;;10.50;67.90;;;;;;5075582;28;20041;-69
2021/04/03 11:25:03;;;;;;;17.67;4.43;;;10.80;67.60;;;;;;5075006;28;20039;-69
2021/04/03 11:27:29;;;;;;;14.73;5.05;;;10.30;67.50;;;;;;5075203;28;20032;-69
2021/04/03 11:29:54;;;;;;;20.60;4.47;;;10.20;67.90;;;;;;5075191;28;20087;-69
2021/04/03 11:32:20;;;;;;;22.55;4.07;;;10.30;68.70;;;;;;5075149;28;20036;-69
2021/04/03 11:34:45;;;;;;;16.80;4.07;;;10.30;68.20;;;;;;5074641;28;20201;-69
2021/04/03 11:37:11;;;;;;;17.27;4.05;;;10.20;66.40;;;;;;5075629;28;20041;-69
2021/04/03 11:39:38;;;;;;;18.40;4.88;;;10.20;66.40;;;;;;5075309;28;20047;-69
2021/04/03 11:42:06;;;;;;;20.50;6.00;;;10.10;66.80;;;;;;5075265;28;20036;-69
2021/04/03 11:44:32;;;;;;;21.92;4.75;;;10.40;67.20;;;;;;5074501;28;20068;-69
2021/04/03 11:46:58;;;;;;;24.40;4.53;;;10.20;66.50;;;;;;5057076;28;20111;-69
2021/04/03 11:49:24;;;;;;;22.30;4.68;;;10.00;66.30;;;;;;5074939;28;20476;-69
2021/04/03 11:51:50;;;;;;;21.10;4.45;;;10.30;67.60;;;;;;5074816;28;20039;-69
2021/04/03 11:54:19;;;;;;;14.90;4.43;;;10.50;66.70;;;;;;5074863;28;20124;-69
2021/04/03 11:56:45;;;;;;;18.33;4.40;;;10.80;66.80;;;;;;5074371;28;20127;-69
2021/04/03 11:59:11;;;;;;;20.63;5.32;;;10.80;65.90;;;;;;5074404;28;20044;-69
2021/04/03 12:01:36;;;;;;;17.50;3.85;;;10.70;66.30;;;;;;5074780;28;20036;-69
2021/04/03 12:04:02;;;;;;;19.20;5.00;;;10.60;67.30;;;;;;5074909;28;20044;-70
2021/04/03 12:06:28;;;;;;;21.27;4.93;;;9.90;67.00;;;;;;5074596;28;20511;-69
2021/04/03 12:08:54;;;;;;;25.67;5.13;;;10.10;68.30;;;;;;5074774;28;20063;-70
2021/04/03 12:11:20;;;;;;;17.77;4.18;;;10.00;67.50;;;;;;5073804;28;20480;-70
2021/04/03 12:13:45;;;;;;;19.40;5.28;;;9.90;66.60;;;;;;5055981;28;20102;-71
2021/04/03 12:16:12;;;;;;;23.52;4.78;;;9.90;67.30;;;;;;5073958;28;20492;-70
2021/04/03 12:18:39;;;;;;;30.23;5.05;;;10.20;67.70;;;;;;5074102;28;20036;-70
2021/04/03 12:21:04;;;;;;;26.48;5.53;;;10.20;66.30;;;;;;5074467;28;20040;-70
2021/04/03 12:23:31;;;;;;;17.17;4.47;;;10.10;66.50;;;;;;5074146;28;20051;-70
2021/04/03 12:25:56;;;;;;;23.83;4.47;;;10.00;66.60;;;;;;5073664;28;20105;-70
2021/04/03 12:28:22;;;;;;;21.15;5.68;;;9.80;66.70;;;;;;5074072;28;20484;-70
2021/04/03 12:30:48;;;;;;;20.48;5.03;;;9.90;67.50;;;;;;5073932;28;20471;-70
2021/04/03 12:33:13;;;;;;;28.02;6.75;;;9.90;68.10;;;;;;5073776;28;20044;-70
2021/04/03 12:35:39;;;;;;;29.40;5.18;;;9.90;67.70;;;;;;5073429;28;20044;-70
2021/04/03 12:38:05;;;;;;;24.83;4.72;;;9.90;68.50;;;;;;5073848;28;20040;-70
2021/04/03 12:40:30;;;;;;;18.98;3.80;;;9.70;67.80;;;;;;5073675;28;20116;-70
2021/04/03 12:42:56;;;;;;;22.52;4.35;;;9.90;66.80;;;;;;5073843;28;20055;-70
2021/04/03 12:45:22;;;;;;;21.35;4.63;;;10.10;65.60;;;;;;5073480;28;20500;-70
2021/04/03 12:47:47;;;;;;;23.10;5.22;;;10.00;65.60;;;;;;5073558;28;20430;-70
2021/04/03 12:50:13;;;;;;;18.48;4.47;;;10.10;66.80;;;;;;5073607;28;20074;-70